Time;durP1;ratioP1;P1;durP2;ratioP2;P2;SDS_P1;SDS_P2;PMS_P1;PMS_P2;Temp;Humidity;BMP_temperature;BMP_pressure;BME280_temperature;BME280_humidity;BME280_pressure;Samples;Min_cycle;Max_cycle;Signal;HPM_P1;HPM_P2
2021/09/05 00:02:12;;;;;;;31.42;16.67;;;;;;;22.01;65.07;101691.00;5091029;28;20054;-69
2021/09/05 00:04:37;;;;;;;31.08;17.08;;;;;;;22.01;65.39;101683.00;5092372;28;20132;-69
2021/09/05 00:07:03;;;;;;;28.52;17.73;;;;;;;22.01;65.28;101677.66;5090992;28;20035;-69
2021/09/05 00:09:29;;;;;;;30.25;17.30;;;;;;;22.01;65.53;101680.34;5072689;28;20036;-69
2021/09/05 00:11:54;;;;;;;29.77;16.95;;;;;;;22.02;65.14;101683.81;5091570;28;20032;-69
2021/09/05 00:14:20;;;;;;;27.95;17.00;;;;;;;22.01;65.22;101679.50;5091603;28;20063;-69
2021/09/05 00:16:45;;;;;;;24.70;16.13;;;;;;;22.01;65.05;101674.97;5091742;28;20147;-69
2021/09/05 00:19:11;;;;;;;27.95;16.42;;;;;;;22.00;65.20;101681.34;5091793;28;20159;-69
2021/09/05 00:21:36;;;;;;;28.13;16.02;;;;;;;22.01;65.24;101679.50;5091437;28;20429;-69
2021/09/05 00:24:02;;;;;;;32.72;17.50;;;;;;;22.01;65.09;101679.50;5091851;28;20044;-69
2021/09/05 00:26:31;;;;;;;30.70;17.10;;;;;;;22.00;65.16;101670.66;5073292;28;20032;-69
2021/09/05 00:28:56;;;;;;;30.33;17.20;;;;;;;22.01;64.96;101674.16;5073134;28;20430;-69
2021/09/05 00:31:22;;;;;;;28.77;16.33;;;;;;;21.99;64.83;101669.00;5091080;28;20036;-69
2021/09/05 00:33:47;;;;;;;30.80;16.83;;;;;;;21.99;64.85;101674.34;5073552;28;20032;-69
2021/09/05 00:36:13;;;;;;;29.08;15.95;;;;;;;22.00;64.70;101668.00;5091084;28;20033;-69
2021/09/05 00:38:38;;;;;;;26.95;16.23;;;;;;;22.00;65.00;101673.34;5091384;28;20173;-69
2021/09/05 00:41:03;;;;;;;30.38;16.05;;;;;;;22.00;64.86;101676.00;5090424;28;20087;-69
2021/09/05 00:43:29;;;;;;;28.88;16.23;;;;;;;21.99;64.58;101671.69;5089719;28;20044;-69
2021/09/05 00:45:54;;;;;;;29.02;16.52;;;;;;;21.99;64.73;101676.19;5073444;28;20482;-69
2021/09/05 00:48:20;;;;;;;28.38;16.10;;;;;;;21.99;65.01;101670.84;5090935;28;20040;-69
2021/09/05 00:50:45;;;;;;;33.70;16.20;;;;;;;22.00;64.86;101667.16;5072708;28;20066;-69
2021/09/05 00:53:11;;;;;;;29.08;16.77;;;;;;;21.99;64.90;101669.00;5091144;28;20039;-70
2021/09/05 00:55:38;;;;;;;25.50;15.65;;;;;;;21.99;64.73;101671.69;5090416;28;20032;-69
2021/09/05 00:58:08;;;;;;;27.90;15.07;;;;;;;21.99;64.81;101676.19;5090531;28;20086;-69
2021/09/05 01:00:35;;;;;;;27.05;15.60;;;;;;;21.99;64.87;101674.34;5089729;28;20426;-69
2021/09/05 01:03:02;;;;;;;27.77;16.05;;;;;;;21.98;64.64;101662.00;5090518;28;20115;-69
2021/09/05 01:05:28;;;;;;;26.40;16.33;;;;;;;21.99;64.69;101662.84;5090521;28;20440;-69
2021/09/05 01:07:53;;;;;;;27.15;15.43;;;;;;;21.99;64.89;101658.31;5089672;28;20031;-69
2021/09/05 01:10:18;;;;;;;28.02;15.52;;;;;;;21.98;64.55;101656.69;5090268;28;20106;-69
2021/09/05 01:12:44;;;;;;;26.67;16.05;;;;;;;21.99;64.78;101661.00;5089364;28;20071;-69
2021/09/05 01:15:10;;;;;;;25.38;15.10;;;;;;;21.98;64.81;101656.69;5090074;28;20537;-69
2021/09/05 01:17:37;;;;;;;25.80;14.93;;;;;;;21.98;64.41;101654.00;5090365;28;20036;-69
2021/09/05 01:20:07;;;;;;;25.75;15.20;;;;;;;21.97;64.56;101649.69;5090429;28;20161;-69
2021/09/05 01:22:33;;;;;;;29.48;15.18;;;;;;;21.98;64.72;101643.31;5089850;28;20035;-69
2021/09/05 01:24:59;;;;;;;27.60;15.75;;;;;;;21.99;64.50;101652.97;5090456;28;20089;-69
2021/09/05 01:27:25;;;;;;;27.40;15.07;;;;;;;21.99;64.65;101650.31;5071494;28;20647;-69
2021/09/05 01:29:51;;;;;;;26.52;15.35;;;;;;;21.98;64.50;101650.50;5072203;28;20068;-69
2021/09/05 01:32:17;;;;;;;28.48;15.48;;;;;;;21.98;64.66;101650.50;5090218;28;20464;-69
2021/09/05 01:34:43;;;;;;;25.33;14.68;;;;;;;21.98;64.30;101642.50;5072361;28;20039;-69
2021/09/05 01:37:08;;;;;;;27.65;15.30;;;;;;;21.98;64.21;101640.66;5090017;28;20452;-69
2021/09/05 01:39:34;;;;;;;23.65;14.35;;;;;;;21.98;64.50;101635.31;5089937;28;20036;-69
2021/09/05 01:41:59;;;;;;;27.27;14.88;;;;;;;21.99;64.78;101638.81;5089473;28;20056;-69
2021/09/05 01:44:25;;;;;;;26.10;14.73;;;;;;;21.98;64.46;101632.63;5090504;28;20047;-69
2021/09/05 01:46:51;;;;;;;28.08;15.00;;;;;;;21.99;64.34;101634.28;5071850;28;20040;-69
2021/09/05 01:49:17;;;;;;;26.90;14.43;;;;;;;21.98;64.01;101640.66;5090430;28;20035;-69
2021/09/05 01:51:43;;;;;;;26.25;14.90;;;;;;;21.97;64.59;101630.97;5089562;28;20067;-69
2021/09/05 01:54:09;;;;;;;26.33;15.13;;;;;;;21.98;64.58;101637.97;5089842;28;20465;-69
2021/09/05 01:56:35;;;;;;;24.70;14.90;;;;;;;21.98;64.25;101637.97;5090079;28;20032;-69
2021/09/05 01:59:02;;;;;;;22.27;13.60;;;;;;;21.98;64.03;101637.97;5089917;28;20038;-69
2021/09/05 02:01:29;;;;;;;24.67;14.57;;;;;;;21.98;64.37;101635.31;5089395;28;20111;-69
2021/09/05 02:03:55;;;;;;;25.63;13.90;;;;;;;21.98;64.22;101637.16;5071733;28;20028;-69
2021/09/05 02:06:21;;;;;;;26.00;14.52;;;;;;;21.98;64.13;101635.31;5089011;28;20115;-69
2021/09/05 02:08:46;;;;;;;25.10;13.65;;;;;;;21.98;64.20;101642.50;5090094;28;20527;-69
2021/09/05 02:11:13;;;;;;;25.55;14.68;;;;;;;21.97;64.29;101633.66;5089928;28;20028;-69
2021/09/05 02:13:39;;;;;;;22.80;13.98;;;;;;;21.98;64.46;101629.13;5089177;28;20093;-68
2021/09/05 02:16:05;;;;;;;24.45;14.30;;;;;;;21.97;64.27;101630.97;5089478;28;20040;-69
2021/09/05 02:18:31;;;;;;;23.92;13.50;;;;;;;21.98;64.26;101632.63;5089421;28;20062;-69
2021/09/05 02:20:57;;;;;;;22.58;13.98;;;;;;;21.98;63.89;101629.97;5089248;28;20464;-69
2021/09/05 02:23:22;;;;;;;22.38;13.45;;;;;;;21.98;63.89;101629.13;5088893;28;20070;-69
2021/09/05 02:25:48;;;;;;;22.67;13.38;;;;;;;21.98;63.78;101627.28;5089634;28;20032;-69
2021/09/05 02:28:13;;;;;;;21.33;12.75;;;;;;;21.98;64.06;101631.81;5089049;28;20099;-69
2021/09/05 02:30:38;;;;;;;22.30;13.23;;;;;;;21.97;63.83;101630.97;5089370;28;20441;-69
2021/09/05 02:33:04;;;;;;;21.40;13.38;;;;;;;21.98;63.99;101631.81;5089127;28;20192;-69
2021/09/05 02:35:30;;;;;;;22.13;13.43;;;;;;;21.97;64.25;101625.63;5089336;28;20431;-69
2021/09/05 02:37:56;;;;;;;22.23;12.70;;;;;;;21.97;64.00;101630.97;5082158;28;20063;-69
2021/09/05 02:40:22;;;;;;;18.50;11.73;;;;;;;21.98;64.09;101637.16;5089603;28;20398;-69
2021/09/05 02:42:47;;;;;;;21.33;12.40;;;;;;;21.97;63.88;101641.66;5089121;28;20032;-69
2021/09/05 02:45:13;;;;;;;21.33;13.02;;;;;;;21.97;63.87;101635.50;5089183;28;20084;-69
2021/09/05 02:47:38;;;;;;;22.83;12.90;;;;;;;21.97;63.60;101638.16;5088757;28;20589;-69
2021/09/05 02:50:05;;;;;;;19.83;12.45;;;;;;;21.96;64.02;101640.00;5089351;28;20032;-69
2021/09/05 02:52:31;;;;;;;22.10;12.45;;;;;;;21.97;63.79;101639.00;5088409;28;20040;-69
2021/09/05 02:54:56;;;;;;;19.90;12.18;;;;;;;21.97;63.63;101643.50;5070998;28;20067;-69
2021/09/05 02:57:22;;;;;;;22.55;12.25;;;;;;;21.97;63.53;101632.81;5088358;28;20046;-70
2021/09/05 02:59:47;;;;;;;20.65;11.85;;;;;;;21.97;63.63;101630.97;5089253;28;20028;-69
2021/09/05 03:02:13;;;;;;;19.13;11.75;;;;;;;21.96;63.82;101632.00;5088674;28;20386;-69
2021/09/05 03:04:38;;;;;;;19.10;11.75;;;;;;;21.97;63.63;101630.97;5070884;28;20433;-69
2021/09/05 03:07:04;;;;;;;19.77;11.82;;;;;;;21.96;63.90;101626.66;5092790;28;20028;-69
2021/09/05 03:09:29;;;;;;;20.20;11.55;;;;;;;21.96;63.79;101632.00;5092970;28;20024;-69
2021/09/05 03:11:55;;;;;;;20.23;12.60;;;;;;;21.97;63.70;101624.81;5092621;28;20032;-69
2021/09/05 03:14:20;;;;;;;21.77;12.50;;;;;;;21.95;63.80;101627.69;5075191;28;20036;-69
2021/09/05 03:16:46;;;;;;;22.95;11.63;;;;;;;21.97;63.55;101630.16;5092495;28;20066;-69
2021/09/05 03:19:12;;;;;;;21.67;12.18;;;;;;;21.96;63.42;101621.31;5093301;28;20028;-69
2021/09/05 03:21:38;;;;;;;19.00;11.20;;;;;;;21.96;63.72;101628.50;5092344;28;21032;-69
2021/09/05 03:24:05;;;;;;;18.85;11.50;;;;;;;21.96;63.67;101624.00;5075226;28;20039;-69
2021/09/05 03:26:31;;;;;;;16.13;11.00;;;;;;;21.96;63.41;101623.16;5074389;28;20032;-69
2021/09/05 03:28:57;;;;;;;18.25;10.93;;;;;;;21.96;63.51;101632.00;5092690;28;20036;-69
2021/09/05 03:31:22;;;;;;;17.63;11.32;;;;;;;21.95;63.55;101625.00;5074893;28;20039;-69
2021/09/05 03:33:48;;;;;;;17.95;11.35;;;;;;;21.96;63.40;101628.50;5092580;28;20024;-69
2021/09/05 03:36:13;;;;;;;18.70;11.13;;;;;;;21.94;63.39;101634.03;5092380;28;20043;-69
2021/09/05 03:38:38;;;;;;;18.25;11.50;;;;;;;21.95;63.62;101627.69;5092325;28;20099;-69
2021/09/05 03:41:04;;;;;;;19.08;11.27;;;;;;;21.95;63.36;101626.84;5092584;28;20068;-69
2021/09/05 03:43:29;;;;;;;22.83;12.35;;;;;;;21.95;63.36;101626.84;5056990;28;20046;-69
2021/09/05 03:45:55;;;;;;;16.98;10.73;;;;;;;21.95;63.27;101629.53;5092616;28;20028;-69
2021/09/05 03:48:20;;;;;;;17.73;11.10;;;;;;;21.96;63.36;101631.19;5092710;28;20067;-69
2021/09/05 03:50:45;;;;;;;19.50;10.82;;;;;;;21.95;63.21;101638.38;5091934;28;20089;-69
2021/09/05 03:53:11;;;;;;;16.65;11.13;;;;;;;21.94;63.38;101642.06;5092700;28;20048;-69
2021/09/05 03:55:37;;;;;;;18.02;11.07;;;;;;;21.95;63.21;101643.72;5091852;28;20090;-69
2021/09/05 03:58:03;;;;;;;15.93;10.27;;;;;;;21.94;63.12;101642.06;5092077;28;20089;-70
2021/09/05 04:00:29;;;;;;;18.85;10.80;;;;;;;21.96;63.03;101644.53;5073641;28;20032;-69
2021/09/05 04:02:54;;;;;;;15.73;10.63;;;;;;;21.94;62.98;101644.72;5092102;28;20411;-69
2021/09/05 04:05:20;;;;;;;17.48;9.60;;;;;;;21.95;63.44;101654.41;5092206;28;20101;-69
2021/09/05 04:08:21;;;;;;;18.15;10.45;;;;;;;21.95;63.22;101657.06;5091392;28;20436;-69
2021/09/05 04:10:38;;;;;;;18.85;10.95;;;;;;;21.94;62.99;101652.75;5087260;28;20461;-69
2021/09/05 04:13:08;;;;;;;18.08;11.30;;;;;;;21.94;62.90;101655.41;5091456;28;20093;-69
2021/09/05 04:15:33;;;;;;;14.82;10.25;;;;;;;21.95;63.04;101653.56;5091478;28;20047;-69
2021/09/05 04:17:59;;;;;;;16.60;10.48;;;;;;;21.94;63.19;101652.75;5091787;28;20040;-69
2021/09/05 04:20:25;;;;;;;16.85;9.80;;;;;;;21.94;63.11;101652.75;5091958;28;20032;-69
2021/09/05 04:22:50;;;;;;;16.70;10.13;;;;;;;21.94;63.14;101644.72;5072623;28;20040;-69
2021/09/05 04:25:17;;;;;;;16.52;9.57;;;;;;;21.95;63.29;101648.22;5091994;28;20068;-69
2021/09/05 04:27:42;;;;;;;16.38;10.05;;;;;;;21.94;63.20;101641.22;5091546;28;20115;-69
2021/09/05 04:30:11;;;;;;;15.52;9.85;;;;;;;21.93;62.92;101648.38;5091441;28;20507;-69
2021/09/05 04:32:39;;;;;;;14.50;9.52;;;;;;;21.94;63.27;101646.56;5073167;28;20048;-69
2021/09/05 04:35:05;;;;;;;13.52;9.55;;;;;;;21.94;63.04;101651.91;5073260;28;20036;-69
2021/09/05 04:37:31;;;;;;;14.77;10.38;;;;;;;21.95;63.10;101661.59;5090778;28;20783;-69
2021/09/05 04:39:57;;;;;;;18.02;9.85;;;;;;;21.94;63.25;101654.59;5091085;28;20039;-68
2021/09/05 04:42:23;;;;;;;13.00;9.20;;;;;;;21.94;62.80;101658.09;5091155;28;20032;-69
2021/09/05 04:44:48;;;;;;;14.20;9.65;;;;;;;21.94;63.01;101659.94;5073200;28;20032;-69
2021/09/05 04:47:14;;;;;;;16.00;10.45;;;;;;;21.94;62.95;101663.44;5091300;28;20363;-69
2021/09/05 04:49:40;;;;;;;13.30;9.07;;;;;;;21.94;62.85;101660.75;5073645;28;20036;-69
2021/09/05 04:52:06;;;;;;;14.02;9.27;;;;;;;21.94;62.82;101662.59;5090825;28;20040;-69
2021/09/05 04:54:35;;;;;;;16.00;10.40;;;;;;;21.93;63.18;101672.44;5090859;28;20046;-69
2021/09/05 04:57:00;;;;;;;15.13;9.35;;;;;;;21.93;62.73;101667.09;5090629;28;20120;-69
2021/09/05 04:59:26;;;;;;;14.32;9.25;;;;;;;21.93;62.93;101672.44;5072520;28;20119;-69
2021/09/05 05:01:51;;;;;;;14.40;9.02;;;;;;;21.93;63.05;101668.94;5090161;28;20051;-69
2021/09/05 05:04:17;;;;;;;16.23;9.52;;;;;;;21.93;62.84;101672.44;5072604;28;20024;-69
2021/09/05 05:06:43;;;;;;;14.68;9.65;;;;;;;21.93;62.96;101672.44;5089949;28;20036;-69
2021/09/05 05:09:09;;;;;;;14.38;8.75;;;;;;;21.93;62.75;101672.44;5072641;28;20433;-69
2021/09/05 05:11:35;;;;;;;12.32;9.32;;;;;;;21.93;63.00;101674.28;5090582;28;20028;-69
2021/09/05 05:14:01;;;;;;;13.70;9.30;;;;;;;21.93;62.69;101675.09;5072001;28;20402;-69
2021/09/05 05:16:26;;;;;;;13.95;9.32;;;;;;;21.94;62.97;101667.94;5090390;28;20032;-69
2021/09/05 05:18:52;;;;;;;14.73;9.43;;;;;;;21.93;62.63;101672.44;5072485;28;20055;-69
2021/09/05 05:21:17;;;;;;;14.05;8.88;;;;;;;21.92;62.95;101668.09;5089821;28;20079;-69
2021/09/05 05:23:43;;;;;;;14.48;9.40;;;;;;;21.93;62.86;101672.44;5089712;28;20028;-69
2021/09/05 05:26:08;;;;;;;14.40;9.63;;;;;;;21.93;62.61;101666.25;5089634;28;20142;-69
2021/09/05 05:28:34;;;;;;;14.55;9.35;;;;;;;21.92;62.66;101676.13;5089184;28;20391;-69
2021/09/05 05:30:59;;;;;;;15.20;9.32;;;;;;;21.94;62.74;101681.31;5090657;28;20471;-69
2021/09/05 05:33:25;;;;;;;14.68;9.55;;;;;;;21.92;62.77;101676.13;5090308;28;20036;-69
2021/09/05 05:35:51;;;;;;;12.73;8.95;;;;;;;21.93;62.85;101677.78;5089936;28;20024;-69
2021/09/05 05:38:16;;;;;;;13.55;9.20;;;;;;;21.94;62.77;101683.97;5072287;28;20094;-69
2021/09/05 05:40:42;;;;;;;14.15;9.23;;;;;;;21.93;62.70;101684.97;5090001;28;20052;-69
2021/09/05 05:43:07;;;;;;;14.90;8.95;;;;;;;21.92;62.71;101689.47;5089576;28;20327;-69
2021/09/05 05:45:33;;;;;;;13.20;8.85;;;;;;;21.92;62.76;101683.31;5089919;28;20062;-69
2021/09/05 05:47:58;;;;;;;14.55;9.50;;;;;;;21.93;63.01;101696.47;5090075;28;20032;-69
2021/09/05 05:50:26;;;;;;;13.32;9.02;;;;;;;21.93;63.02;101701.00;5090017;28;20028;-69
2021/09/05 05:52:52;;;;;;;12.88;8.73;;;;;;;21.92;62.80;101707.34;5089623;28;20138;-69
2021/09/05 05:55:19;;;;;;;12.48;8.00;;;;;;;21.93;63.06;101704.50;5090254;28;20038;-69
2021/09/05 05:57:45;;;;;;;11.98;8.35;;;;;;;21.92;62.70;101702.00;5089068;28;20028;-69
2021/09/05 06:00:11;;;;;;;13.13;8.30;;;;;;;21.93;62.87;101711.69;5089434;28;20490;-67
2021/09/05 06:02:36;;;;;;;15.15;8.57;;;;;;;21.93;62.88;101704.50;5089553;28;20032;-67
2021/09/05 06:05:03;;;;;;;14.57;8.52;;;;;;;21.93;63.40;101717.03;5090049;28;20048;-67
2021/09/05 06:07:28;;;;;;;15.10;8.95;;;;;;;21.93;63.24;101701.81;5089287;28;20519;-69
2021/09/05 06:09:53;;;;;;;11.43;8.32;;;;;;;21.93;63.63;101703.66;5089617;28;20028;-69
2021/09/05 06:12:19;;;;;;;15.38;8.93;;;;;;;21.93;63.52;101712.50;5089118;28;20028;-69
2021/09/05 06:14:45;;;;;;;13.10;8.25;;;;;;;21.94;63.67;101716.84;5089385;28;20185;-69
2021/09/05 06:17:11;;;;;;;13.50;9.18;;;;;;;21.94;64.03;101714.19;5089680;28;20036;-69
2021/09/05 06:19:36;;;;;;;12.77;8.77;;;;;;;21.94;64.29;101727.53;5089034;28;20039;-69
2021/09/05 06:22:02;;;;;;;14.32;9.52;;;;;;;21.95;64.20;101731.03;5070604;28;20402;-73
2021/09/05 06:24:27;;;;;;;13.30;8.82;;;;;;;21.94;63.91;101724.88;5053830;28;20039;-69
2021/09/05 06:26:53;;;;;;;23.38;8.88;;;;;;;21.95;64.17;101725.69;5088861;28;20118;-67
2021/09/05 06:29:18;;;;;;;13.65;8.18;;;;;;;21.95;64.68;101729.19;5089036;28;20102;-67
2021/09/05 06:31:44;;;;;;;15.65;8.95;;;;;;;21.96;64.44;101728.19;5088743;28;20314;-68
2021/09/05 06:34:09;;;;;;;13.50;8.68;;;;;;;21.98;64.79;101731.47;5089238;28;20047;-67
2021/09/05 06:36:35;;;;;;;16.45;8.63;;;;;;;21.98;64.97;101728.81;5087813;28;20073;-71
2021/09/05 06:39:00;;;;;;;15.52;8.82;;;;;;;22.00;64.93;101728.63;5088729;28;20036;-69
2021/09/05 06:41:26;;;;;;;12.27;8.40;;;;;;;21.99;64.72;101724.28;5088143;28;20055;-67
2021/09/05 06:43:51;;;;;;;13.93;8.00;;;;;;;22.00;64.59;101734.78;5088025;28;20356;-72
2021/09/05 06:46:17;;;;;;;16.55;8.88;;;;;;;22.00;64.71;101733.97;5086080;28;20040;-66
2021/09/05 06:48:45;;;;;;;16.00;7.32;;;;;;;22.00;65.00;101737.47;5085401;28;20516;-67
2021/09/05 06:51:11;;;;;;;13.32;8.35;;;;;;;22.02;65.07;101732.75;5066771;28;20112;-67
2021/09/05 06:53:37;;;;;;;14.38;8.73;;;;;;;22.03;64.94;101736.25;5084622;28;20510;-66
2021/09/05 06:56:03;;;;;;;14.98;8.98;;;;;;;22.03;65.17;101741.59;5085353;28;20043;-67
2021/09/05 06:58:28;;;;;;;13.95;8.10;;;;;;;22.03;64.82;101747.75;5084806;28;20396;-66
2021/09/05 07:00:54;;;;;;;17.73;8.68;;;;;;;22.03;64.98;101746.94;5082523;28;20115;-67
2021/09/05 07:03:20;;;;;;;13.15;8.05;;;;;;;22.06;65.14;101754.59;5085252;28;20127;-67
2021/09/05 07:05:45;;;;;;;13.07;8.32;;;;;;;22.05;64.99;101751.09;5084145;28;20100;-67
2021/09/05 07:08:11;;;;;;;12.30;7.88;;;;;;;22.05;65.11;101751.09;5067870;28;20050;-68
2021/09/05 07:10:37;;;;;;;13.38;7.97;;;;;;;22.05;64.99;101745.75;5092427;28;20032;-66
2021/09/05 07:13:03;;;;;;;12.02;8.60;;;;;;;22.05;65.02;101759.09;5075985;28;20761;-69
2021/09/05 07:15:28;;;;;;;10.55;7.28;;;;;;;22.05;65.06;101759.09;5085845;28;20120;-68
2021/09/05 07:17:54;;;;;;;14.80;8.48;;;;;;;;;;5085245;28;20490;-68
2021/09/05 07:20:19;;;;;;;11.48;8.10;;;;;;;22.06;65.15;101763.44;5085503;28;20040;-69
2021/09/05 07:22:45;;;;;;;16.38;7.90;;;;;;;22.07;65.03;101766.94;5084624;28;20077;-72
2021/09/05 07:25:10;;;;;;;11.25;7.72;;;;;;;22.05;64.86;101772.47;5085424;28;20081;-69
2021/09/05 07:27:37;;;;;;;12.02;7.97;;;;;;;22.07;65.20;101772.28;5077931;28;20044;-69
2021/09/05 07:30:04;;;;;;;11.70;7.60;;;;;;;22.06;64.94;101770.63;5083545;28;20124;-69
2021/09/05 07:32:30;;;;;;;12.38;7.25;;;;;;;22.06;65.10;101782.13;5077494;28;20024;-65
2021/09/05 07:34:55;;;;;;;12.27;7.70;;;;;;;22.05;64.96;101775.13;5086959;28;20036;-68
2021/09/05 07:37:20;;;;;;;14.18;7.82;;;;;;;22.06;64.88;101778.63;5086875;28;20536;-67
2021/09/05 07:39:46;;;;;;;15.05;8.60;;;;;;;22.05;65.21;101780.47;5079472;28;20488;-68
2021/09/05 07:42:11;;;;;;;10.98;7.43;;;;;;;22.05;65.18;101780.47;5057345;28;20084;-68
2021/09/05 07:44:37;;;;;;;14.18;7.80;;;;;;;22.06;65.06;101783.97;5064197;28;20043;-70
2021/09/05 07:47:03;;;;;;;12.55;7.90;;;;;;;22.06;64.99;101781.31;5066525;28;20111;-69
2021/09/05 07:49:29;;;;;;;11.60;7.72;;;;;;;22.07;65.20;101774.94;5065496;28;20086;-68
2021/09/05 07:51:54;;;;;;;12.75;7.43;;;;;;;22.06;65.19;101779.47;5066333;28;20048;-69
2021/09/05 07:54:20;;;;;;;15.05;8.20;;;;;;;22.07;65.08;101775.78;5069939;28;20109;-69
2021/09/05 07:56:45;;;;;;;13.93;8.45;;;;;;;22.06;64.94;101774.13;5050410;28;20042;-69
2021/09/05 07:59:11;;;;;;;13.13;7.95;;;;;;;22.07;65.13;101774.94;5057795;28;20036;-69
2021/09/05 08:01:36;;;;;;;16.02;8.75;;;;;;;22.07;64.97;101774.94;5069841;28;20111;-69
2021/09/05 08:04:02;;;;;;;10.63;7.97;;;;;;;22.07;64.92;101777.63;5069950;28;20036;-70
2021/09/05 08:06:27;;;;;;;15.80;9.15;;;;;;;22.07;64.98;101780.28;5050243;28;20615;-68
2021/09/05 08:08:55;;;;;;;14.02;8.07;;;;;;;22.07;64.79;101778.44;5049894;28;20037;-67
2021/09/05 08:11:21;;;;;;;12.20;8.25;;;;;;;22.08;64.93;101776.59;5068172;28;20059;-68
2021/09/05 08:13:46;;;;;;;12.45;8.27;;;;;;;22.08;64.43;101776.59;5066137;28;20037;-68
2021/09/05 08:16:12;;;;;;;11.93;9.15;;;;;;;22.08;64.82;101776.59;5054731;28;20051;-69
2021/09/05 08:18:38;;;;;;;14.52;8.35;;;;;;;22.08;64.74;101788.13;5088420;28;20173;-68
2021/09/05 08:21:06;;;;;;;18.40;8.80;;;;;;;22.10;64.91;101782.59;5087260;28;20104;-68
2021/09/05 08:23:32;;;;;;;12.70;8.70;;;;;;;22.09;64.70;101780.94;5054854;28;20032;-69
2021/09/05 08:25:58;;;;;;;14.20;9.57;;;;;;;22.09;64.47;101784.47;5057535;28;20040;-68
2021/09/05 08:28:24;;;;;;;15.07;9.20;;;;;;;22.08;64.18;101774.75;5066674;28;20733;-68
2021/09/05 08:30:49;;;;;;;14.05;9.45;;;;;;;22.08;64.31;101782.78;5056534;28;20037;-67
2021/09/05 08:33:16;;;;;;;13.57;9.10;;;;;;;22.08;64.16;101769.41;5062909;28;20039;-69
2021/09/05 08:35:42;;;;;;;19.85;10.23;;;;;;;22.08;64.49;101772.09;5078778;28;20348;-69
2021/09/05 08:38:08;;;;;;;16.58;9.95;;;;;;;22.08;64.21;101772.09;5086815;28;20036;-74
2021/09/05 08:40:40;;;;;;;15.02;9.68;;;;;;;22.07;64.44;101781.13;5074610;28;20043;-73
2021/09/05 08:43:06;;;;;;;16.48;10.27;;;;;;;22.08;64.23;101773.94;5070347;28;20059;-72
2021/09/05 08:45:33;;;;;;;13.80;9.30;;;;;;;22.07;64.17;101781.13;5076876;28;20035;-75
2021/09/05 08:48:00;;;;;;;17.25;10.43;;;;;;;22.06;63.77;101776.78;5077433;28;20040;-70
2021/09/05 08:50:26;;;;;;;16.83;9.93;;;;;;;22.06;64.09;101771.44;5087397;28;20109;-69
2021/09/05 08:52:52;;;;;;;15.98;10.38;;;;;;;22.07;63.93;101770.44;5086276;28;20507;-68
2021/09/05 08:55:17;;;;;;;17.67;11.20;;;;;;;22.06;63.90;101773.28;5088364;28;20036;-70
2021/09/05 08:57:43;;;;;;;20.13;12.20;;;;;;;22.07;64.19;101773.09;5071069;28;20119;-69
2021/09/05 09:00:10;;;;;;;19.17;11.85;;;;;;;22.07;64.00;101774.94;5086107;28;20117;-70
2021/09/05 09:02:47;;;;;;;17.55;11.18;;;;;;;22.03;64.00;101761.13;5072211;28;20024;-68
2021/09/05 09:05:13;;;;;;;18.38;12.00;;;;;;;22.08;64.15;101766.75;5091470;28;20114;-69
2021/09/05 09:07:48;;;;;;;28.88;13.27;;;;;;;22.06;64.64;101766.09;5072588;28;20115;-70
2021/09/05 09:10:15;;;;;;;25.60;15.70;;;;;;;22.11;64.71;101768.22;5091432;28;20036;-69
2021/09/05 09:12:43;;;;;;;25.33;16.80;;;;;;;22.13;64.99;101774.22;5090626;28;20111;-69
2021/09/05 09:15:30;;;;;;;40.05;23.50;;;;;;;22.13;65.62;101762.69;5091445;28;20028;-69
2021/09/05 09:17:58;;;;;;;36.40;23.08;;;;;;;22.19;65.77;101769.94;5072269;28;20039;-68
2021/09/05 09:20:40;;;;;;;39.00;22.90;;;;;;;22.19;65.84;101767.25;5088062;28;20032;-70
2021/09/05 09:23:11;;;;;;;37.97;22.58;;;;;;;22.21;66.22;101763.38;5075509;28;20054;-70
2021/09/05 09:25:37;;;;;;;40.10;24.65;;;;;;;22.25;66.13;101769.16;5091396;28;20036;-70
2021/09/05 09:28:29;;;;;;;39.25;24.25;;;;;;;22.21;66.27;101768.72;5090377;28;20032;-70
2021/09/05 09:31:00;;;;;;;35.85;21.88;;;;;;;22.25;66.19;101777.19;5091424;28;20431;-71
2021/09/05 09:33:29;;;;;;;40.97;22.48;;;;;;;22.28;66.18;101771.47;5090593;28;20032;-71
2021/09/05 09:35:56;;;;;;;33.15;19.67;;;;;;;22.28;65.90;101774.97;5090374;28;20040;-66
2021/09/05 09:38:23;;;;;;;33.13;20.20;;;;;;;22.29;66.32;101771.28;5090581;28;20119;-71
2021/09/05 09:40:49;;;;;;;34.97;19.98;;;;;;;22.30;66.04;101780.13;5090273;28;20117;-72
2021/09/05 09:43:22;;;;;;;26.90;20.05;;;;;;;22.28;66.09;101772.31;5059138;28;20052;-71
2021/09/05 09:45:50;;;;;;;30.63;19.92;;;;;;;22.29;65.54;101775.81;5090206;28;20031;-72
2021/09/05 09:48:26;;;;;;;27.40;19.98;;;;;;;22.26;65.32;101774.34;5090415;28;20113;-70
2021/09/05 09:51:01;;;;;;;30.70;19.83;;;;;;;22.27;65.20;101780.50;5089810;28;20031;-70
2021/09/05 09:53:28;;;;;;;32.55;19.95;;;;;;;22.27;64.91;101780.50;5079661;28;20790;-70
2021/09/05 09:55:57;;;;;;;33.22;20.60;;;;;;;22.25;64.87;101772.69;5070549;28;20082;-70
2021/09/05 09:58:23;;;;;;;30.85;21.13;;;;;;;22.22;64.49;101780.25;5052675;28;20322;-70
2021/09/05 10:00:49;;;;;;;30.25;18.77;;;;;;;22.21;64.13;101776.75;5073428;28;20046;-68
2021/09/05 10:03:15;;;;;;;29.48;19.27;;;;;;;22.19;64.32;101778.78;5060474;28;20119;-68
2021/09/05 10:05:41;;;;;;;28.75;18.88;;;;;;;22.19;63.81;101783.31;5089250;28;20068;-68
2021/09/05 10:08:07;;;;;;;27.40;19.20;;;;;;;22.18;63.69;101778.97;5070758;28;20068;-68
2021/09/05 10:10:33;;;;;;;29.50;18.30;;;;;;;22.17;63.77;101788.84;5090129;28;20121;-68
2021/09/05 10:13:02;;;;;;;25.63;18.27;;;;;;;22.16;63.50;101789.03;5089362;28;20464;-68
2021/09/05 10:15:28;;;;;;;28.50;17.88;;;;;;;22.15;63.58;101790.03;5090018;28;20047;-69
2021/09/05 10:17:54;;;;;;;25.42;17.92;;;;;;;22.13;63.42;101789.41;5089709;28;20028;-68
2021/09/05 10:20:20;;;;;;;28.83;18.48;;;;;;;22.11;63.06;101785.09;5089810;28;20032;-69
2021/09/05 10:22:49;;;;;;;30.20;19.25;;;;;;;22.09;62.94;101776.44;5089267;28;20032;-69
2021/09/05 10:25:17;;;;;;;28.20;18.98;;;;;;;22.08;62.86;101776.59;5089619;28;20032;-69
2021/09/05 10:27:46;;;;;;;25.95;18.20;;;;;;;;;;5089762;28;20028;-69
2021/09/05 10:30:13;;;;;;;26.33;19.10;;;;;;;22.06;63.09;101789.31;5086131;28;20248;-69
2021/09/05 10:32:52;;;;;;;26.23;18.95;;;;;;;22.03;62.82;101779.00;5090004;28;20036;-69
2021/09/05 10:35:28;;;;;;;27.33;19.33;;;;;;;21.99;62.65;101781.22;5086199;28;20110;-68
2021/09/05 10:38:30;;;;;;;27.10;18.85;;;;;;;21.95;62.95;101782.63;5089123;28;20028;-69
2021/09/05 10:40:58;;;;;;;29.23;19.30;;;;;;;21.99;62.61;101789.25;5036272;28;20052;-69
2021/09/05 10:43:50;;;;;;;25.77;19.33;;;;;;;21.93;62.72;101786.47;5088998;28;20032;-69
2021/09/05 10:46:21;;;;;;;29.35;19.55;;;;;;;21.94;62.96;101782.81;5089452;28;20024;-68
2021/09/05 10:48:53;;;;;;;28.02;18.80;;;;;;;21.93;62.80;101794.50;5071012;28;20089;-69
2021/09/05 10:51:24;;;;;;;29.35;19.92;;;;;;;21.91;62.67;101786.66;5089331;28;20039;-69
2021/09/05 10:53:51;;;;;;;27.55;19.63;;;;;;;21.92;62.58;101787.50;5089250;28;20070;-69
2021/09/05 10:56:20;;;;;;;26.48;18.40;;;;;;;21.90;62.76;101785.00;5089713;28;20040;-69
2021/09/05 10:58:54;;;;;;;27.52;18.80;;;;;;;21.90;62.69;101786.84;5089187;28;20052;-68
2021/09/05 11:01:29;;;;;;;27.27;18.77;;;;;;;21.88;62.54;101788.91;5089027;28;20038;-68
2021/09/05 11:04:09;;;;;;;31.15;19.80;;;;;;;21.85;62.75;101786.59;5084213;28;20086;-69
2021/09/05 11:06:40;;;;;;;28.25;19.52;;;;;;;21.88;62.66;101789.72;5080237;28;20024;-70
2021/09/05 11:12:13;;;;;;;26.13;18.30;;;;;;;21.86;62.74;101791.75;5078070;28;20060;-70
2021/09/05 11:14:48;;;;;;;25.45;17.23;;;;;;;21.91;62.79;101785.84;5088004;28;20031;-70
2021/09/05 11:17:19;;;;;;;;;;;;;;;21.85;63.00;101781.25;5089982;28;20048;-69